Time;durP1;ratioP1;P1;durP2;ratioP2;P2;SDS_P1;SDS_P2;PMS_P1;PMS_P2;Temp;Humidity;BMP_temperature;BMP_pressure;BME280_temperature;BME280_humidity;BME280_pressure;Samples;Min_cycle;Max_cycle;Signal;HPM_P1;HPM_P2
2021/04/26 00:02:12;;;;;;;1999.90;999.90;;;;;;;5.91;84.68;-18067.53;4963247;29;20200;-31
2021/04/26 00:04:58;;;;;;;1999.90;999.90;;;;;;;5.84;84.66;-18065.91;4963502;29;20281;-31
2021/04/26 00:07:45;;;;;;;1999.90;999.90;;;;;;;5.71;85.48;-18062.44;4961186;29;20542;-31
2021/04/26 00:10:33;;;;;;;1999.90;999.90;;;;;;;5.62;86.13;-18060.00;4960997;29;20271;-31
2021/04/26 00:13:19;;;;;;;1999.90;999.90;;;;;;;5.54;87.41;-18057.88;4963695;29;20271;-31
2021/04/26 00:16:05;;;;;;;1999.90;999.90;;;;;;;5.58;88.84;-18058.81;4962822;29;20292;-30
2021/04/26 00:18:52;;;;;;;1999.90;999.90;;;;;;;5.63;87.09;-18060.28;4965204;29;20251;-31
2021/04/26 00:21:38;;;;;;;1999.90;999.90;;;;;;;5.48;88.56;-18056.38;4965698;29;20208;-31
2021/04/26 00:24:25;;;;;;;1999.90;999.90;;;;;;;5.51;88.21;-18057.19;4963998;29;20447;-31
2021/04/26 00:27:11;;;;;;;1999.90;999.90;;;;;;;5.76;87.81;-18063.63;4964026;29;20203;-31
2021/04/26 00:29:59;;;;;;;1999.90;999.90;;;;;;;5.64;87.54;-18060.41;4968582;29;20199;-31
2021/04/26 00:32:46;;;;;;;1999.90;999.90;;;;;;;5.89;85.88;-18067.13;4965255;29;20200;-30
2021/04/26 00:35:32;;;;;;;1999.90;999.90;;;;;;;5.74;85.44;-18063.09;4963156;29;20546;-30
2021/04/26 00:38:17;;;;;;;1999.90;999.90;;;;;;;5.66;86.46;-18061.09;4962091;29;20232;-31
2021/04/26 00:41:04;;;;;;;1999.90;999.90;;;;;;;5.63;87.36;-18060.28;4961874;29;20480;-30
2021/04/26 00:43:51;;;;;;;1999.90;999.90;;;;;;;5.60;86.96;-18059.47;4961631;29;20448;-30
2021/04/26 00:46:37;;;;;;;1999.90;999.90;;;;;;;5.27;89.06;-18050.63;4961861;29;20203;-30
2021/04/26 00:49:23;;;;;;;1999.90;999.90;;;;;;;5.39;91.16;-18053.84;4961870;29;20865;-30
2021/04/26 00:52:10;;;;;;;1999.90;999.90;;;;;;;5.16;91.39;-18047.94;4962109;29;20447;-30
2021/04/26 00:54:56;;;;;;;1999.90;999.90;;;;;;;5.67;87.71;-18061.22;4929995;29;20212;-30
2021/04/26 00:57:43;;;;;;;1999.90;999.90;;;;;;;5.72;88.43;-18062.69;4928051;29;20489;-30
2021/04/26 01:00:33;;;;;;;1999.90;999.90;;;;;;;5.62;88.32;-18060.00;4923539;29;20537;-30
2021/04/26 01:03:19;;;;;;;1999.90;999.90;;;;;;;5.29;90.48;-18051.28;4923704;29;20461;-30
2021/04/26 01:06:05;;;;;;;1999.90;999.90;;;;;;;5.08;91.82;-18045.78;4923472;29;20445;-31
2021/04/26 01:08:51;;;;;;;1999.90;999.90;;;;;;;4.74;96.52;-18036.78;4924069;29;20461;-30
2021/04/26 01:11:46;;;;;;;1999.90;999.90;;;;;;;5.20;94.09;-18048.88;4923669;29;20517;-30
2021/04/26 01:14:41;;;;;;;1999.90;999.90;;;;;;;5.24;91.97;-18049.94;4923360;29;20545;-30
2021/04/26 01:17:31;;;;;;;1999.90;999.90;;;;;;;5.13;93.06;-18047.13;4923069;29;20889;-30
2021/04/26 01:20:51;;;;;;;1999.90;999.90;;;;;;;5.02;94.04;-18044.03;4922890;29;20453;-31
2021/04/26 01:24:05;;;;;;;1999.90;999.90;;;;;;;4.96;95.98;-18042.44;4923382;29;20449;-30
2021/04/26 01:27:02;;;;;;;1999.90;999.90;;;;;;;4.87;95.27;-18040.16;4923324;29;20613;-30
2021/04/26 01:30:04;;;;;;;1999.90;999.90;;;;;;;4.98;95.71;-18043.09;4922677;29;20509;-30
2021/04/26 01:32:54;;;;;;;1999.90;999.90;;;;;;;5.09;95.34;-18046.06;4922735;29;20444;-30
2021/04/26 01:35:41;;;;;;;1999.90;999.90;;;;;;;4.97;95.20;-18042.84;4924983;29;20513;-30
2021/04/26 01:38:32;;;;;;;1999.90;999.90;;;;;;;4.87;97.16;-18040.16;4924413;29;20908;-31
2021/04/26 01:41:20;;;;;;;1999.90;999.90;;;;;;;4.87;96.35;-18040.16;4923765;29;20449;-30
2021/04/26 01:44:07;;;;;;;1999.90;999.90;;;;;;;4.65;97.79;-18034.25;4923891;29;20453;-30
2021/04/26 01:46:53;;;;;;;1999.90;999.90;;;;;;;4.66;98.22;-18034.50;4923045;29;20514;-31
2021/04/26 01:49:41;;;;;;;1999.90;999.90;;;;;;;4.84;100.00;-18039.34;4925066;29;20453;-30
2021/04/26 01:52:27;;;;;;;1999.90;999.90;;;;;;;5.13;96.29;-18047.00;4923711;29;20448;-30
2021/04/26 01:55:14;;;;;;;1999.90;999.90;;;;;;;5.11;95.52;-18046.59;4924280;29;20449;-30
2021/04/26 01:58:02;;;;;;;1999.90;999.90;;;;;;;4.74;96.27;-18036.78;4923739;29;20576;-30
2021/04/26 02:00:49;;;;;;;1999.90;999.90;;;;;;;4.64;98.00;-18034.09;4923757;29;20498;-30
2021/04/26 02:03:36;;;;;;;1999.90;999.90;;;;;;;4.67;98.06;-18034.78;4923606;29;20533;-30
2021/04/26 02:06:25;;;;;;;1999.90;999.90;;;;;;;4.74;99.50;-18036.66;4922571;29;20875;-30
2021/04/26 02:09:11;;;;;;;1999.90;999.90;;;;;;;4.88;98.13;-18040.28;4923884;29;20498;-31
2021/04/26 02:11:57;;;;;;;1999.90;999.90;;;;;;;4.43;99.61;-18028.59;4923208;29;20461;-30
2021/04/26 02:14:44;;;;;;;1999.90;999.90;;;;;;;4.50;100.00;-18030.34;4923458;29;20586;-30
2021/04/26 02:17:32;;;;;;;1999.90;999.90;;;;;;;4.53;100.00;-18031.16;4924187;29;20488;-30
2021/04/26 02:20:19;;;;;;;1999.90;999.90;;;;;;;4.48;100.00;-18029.94;4923308;29;20545;-30
2021/04/26 02:23:07;;;;;;;1999.90;999.90;;;;;;;4.59;100.00;-18032.75;4924364;29;20521;-30
2021/04/26 02:25:53;;;;;;;1999.90;999.90;;;;;;;4.23;100.00;-18023.09;4922723;29;20568;-30
2021/04/26 02:28:38;;;;;;;1999.90;999.90;;;;;;;4.60;100.00;-18033.03;4923600;29;20537;-30
2021/04/26 02:31:27;;;;;;;1999.90;999.90;;;;;;;4.53;100.00;-18031.16;4922838;29;20445;-30
2021/04/26 02:34:23;;;;;;;1999.90;999.90;;;;;;;4.68;100.00;-18035.19;4922705;29;20556;-30
2021/04/26 02:37:15;;;;;;;1999.90;999.90;;;;;;;4.76;99.19;-18037.31;4923427;29;20546;-31
2021/04/26 02:40:06;;;;;;;1999.90;999.90;;;;;;;4.47;100.00;-18029.53;4922439;29;20741;-30
2021/04/26 02:42:55;;;;;;;1999.90;999.90;;;;;;;4.40;100.00;-18027.78;4922922;29;20890;-30
2021/04/26 02:45:48;;;;;;;1999.90;999.90;;;;;;;4.74;99.90;-18036.78;4923030;29;20900;-31
2021/04/26 02:48:36;;;;;;;1999.90;999.90;;;;;;;4.49;100.00;-18030.22;4921829;29;20737;-30
2021/04/26 02:51:22;;;;;;;1999.90;999.90;;;;;;;4.43;100.00;-18028.59;4923732;29;20456;-30
2021/04/26 02:54:09;;;;;;;1999.90;999.90;;;;;;;4.56;100.00;-18031.81;4947999;29;20479;-31
2021/04/26 02:56:57;;;;;;;1999.90;999.90;;;;;;;4.29;100.00;-18024.84;4961186;29;20650;-31
2021/04/26 02:59:45;;;;;;;1999.90;999.90;;;;;;;4.53;100.00;-18031.00;4960063;29;20451;-30
2021/04/26 03:02:32;;;;;;;1999.90;999.90;;;;;;;4.18;100.00;-18021.75;4960392;29;20880;-31
2021/04/26 03:05:20;;;;;;;1999.90;999.90;;;;;;;4.33;100.00;-18025.91;4961652;29;20452;-31
2021/04/26 03:08:06;;;;;;;1999.90;999.90;;;;;;;3.96;100.00;-18016.09;4960009;29;20444;-30
2021/04/26 03:10:53;;;;;;;1999.90;999.90;;;;;;;4.19;100.00;-18022.16;4960722;29;20452;-31
2021/04/26 03:13:40;;;;;;;1999.90;999.90;;;;;;;4.36;100.00;-18026.59;4959777;29;20448;-30
2021/04/26 03:16:27;;;;;;;1999.90;999.90;;;;;;;4.13;100.00;-18020.53;4961015;29;20551;-31
2021/04/26 03:19:16;;;;;;;1999.90;999.90;;;;;;;4.06;100.00;-18018.78;4960109;29;20727;-30
2021/04/26 03:22:03;;;;;;;1999.90;999.90;;;;;;;4.08;100.00;-18019.19;4960284;29;20475;-30
2021/04/26 03:24:49;;;;;;;1999.90;999.90;;;;;;;3.98;100.00;-18016.63;4961167;29;20558;-30
2021/04/26 03:27:37;;;;;;;1999.90;999.90;;;;;;;3.78;100.00;-18011.25;4959718;29;20447;-30
2021/04/26 03:30:27;;;;;;;1999.90;999.90;;;;;;;3.67;100.00;-18008.44;4961062;29;20447;-30
2021/04/26 03:33:14;;;;;;;1999.90;999.90;;;;;;;3.59;100.00;-18006.16;4959858;29;20870;-30
2021/04/26 03:36:03;;;;;;;1999.90;999.90;;;;;;;3.53;100.00;-18004.53;4961272;29;20515;-30
2021/04/26 03:38:50;;;;;;;1999.90;999.90;;;;;;;3.50;100.00;-18003.75;4960627;29;20483;-31
2021/04/26 03:41:36;;;;;;;1999.90;999.90;;;;;;;3.38;100.00;-18000.78;4959169;29;20448;-31
2021/04/26 03:44:22;;;;;;;1999.90;999.90;;;;;;;3.31;100.00;-17998.91;4960252;29;20747;-31
2021/04/26 03:47:09;;;;;;;1999.90;999.90;;;;;;;3.31;100.00;-17998.75;4960119;29;20938;-31
2021/04/26 03:49:55;;;;;;;1999.90;999.90;;;;;;;3.17;100.00;-17995.00;4958850;29;20459;-31
2021/04/26 03:52:42;;;;;;;1999.90;999.90;;;;;;;3.13;100.00;-17994.06;4964755;28;20729;-31
2021/04/26 03:55:31;;;;;;;1999.90;999.90;;;;;;;3.11;100.00;-17993.53;4962477;29;20561;-31
2021/04/26 03:58:17;;;;;;;1999.90;999.90;;;;;;;3.10;100.00;-17993.38;4964947;29;20562;-31
2021/04/26 04:01:03;;;;;;;1999.90;999.90;;;;;;;3.09;100.00;-17993.13;4965060;29;20568;-31
2021/04/26 04:03:53;;;;;;;1999.90;999.90;;;;;;;3.09;100.00;-17993.13;4962949;29;20447;-28
2021/04/26 04:06:39;;;;;;;1999.90;999.90;;;;;;;2.87;100.00;-17987.19;4964326;29;20553;-31
2021/04/26 04:09:25;;;;;;;1999.90;999.90;;;;;;;2.91;100.00;-17988.28;4963383;29;20858;-31
2021/04/26 04:12:11;;;;;;;1999.90;999.90;;;;;;;2.84;100.00;-17986.41;4963775;29;20739;-31
2021/04/26 04:14:57;;;;;;;1999.90;999.90;;;;;;;2.87;100.00;-17987.19;4963654;29;20454;-30
2021/04/26 04:17:42;;;;;;;1999.90;999.90;;;;;;;2.82;100.00;-17985.84;4963200;29;20482;-31
2021/04/26 04:20:32;;;;;;;1999.90;999.90;;;;;;;2.90;100.00;-17988.00;4964813;29;20473;-31
2021/04/26 04:23:17;;;;;;;1999.90;999.90;;;;;;;2.86;100.00;-17986.78;4962880;29;20467;-31
2021/04/26 04:26:03;;;;;;;1999.90;999.90;;;;;;;2.89;100.00;-17987.75;4962674;29;20882;-30
2021/04/26 04:28:49;;;;;;;1999.90;999.90;;;;;;;2.81;100.00;-17985.59;4962372;29;20571;-31
2021/04/26 04:31:44;;;;;;;1999.90;999.90;;;;;;;2.81;100.00;-17985.59;4961919;29;20715;-30
2021/04/26 04:34:33;;;;;;;1999.90;999.90;;;;;;;2.88;100.00;-17987.34;4962706;29;20795;-31
2021/04/26 04:37:20;;;;;;;1999.90;999.90;;;;;;;2.91;100.00;-17988.28;4961999;29;20486;-28
2021/04/26 04:40:07;;;;;;;1999.90;999.90;;;;;;;3.02;100.00;-17991.09;4962637;29;20447;-28
2021/04/26 04:42:53;;;;;;;1999.90;999.90;;;;;;;3.00;100.00;-17990.56;4961828;29;20615;-28
2021/04/26 04:45:39;;;;;;;1999.90;999.90;;;;;;;2.91;100.00;-17988.28;4962920;29;20859;-29
2021/04/26 04:48:27;;;;;;;1999.90;999.90;;;;;;;3.09;100.00;-17992.97;4962391;29;20451;-29
2021/04/26 04:51:13;;;;;;;1999.90;999.90;;;;;;;3.08;100.00;-17992.84;4962807;29;20455;-29
2021/04/26 04:54:00;;;;;;;1999.90;999.90;;;;;;;3.23;100.00;-17996.63;4961930;29;20494;-29
2021/04/26 04:56:51;;;;;;;1999.90;999.90;;;;;;;3.32;100.00;-17999.03;4961846;29;20555;-29
2021/04/26 04:59:36;;;;;;;1999.90;999.90;;;;;;;3.27;100.00;-17997.81;4964741;29;20446;-29
2021/04/26 05:02:23;;;;;;;1999.90;999.90;;;;;;;3.33;100.00;-17999.44;4962911;29;20751;-29
2021/04/26 05:05:10;;;;;;;1999.90;999.90;;;;;;;3.39;100.00;-18000.91;4960721;29;20721;-29
2021/04/26 05:07:57;;;;;;;1999.90;999.90;;;;;;;3.36;100.00;-18000.25;4960840;29;20878;-29
2021/04/26 05:10:45;;;;;;;1999.90;999.90;;;;;;;3.28;100.00;-17997.97;4963471;29;20448;-29
2021/04/26 05:13:33;;;;;;;1999.90;999.90;;;;;;;3.66;100.00;-18008.16;4964487;29;20459;-29
2021/04/26 05:16:19;;;;;;;1999.90;999.90;;;;;;;3.77;100.00;-18011.00;4961967;29;20451;-29
2021/04/26 05:19:08;;;;;;;1999.90;999.90;;;;;;;3.66;100.00;-18008.03;4961455;29;20490;-29
2021/04/26 05:21:57;;;;;;;1999.90;999.90;;;;;;;3.89;100.00;-18014.09;4961209;29;20572;-29
2021/04/26 05:24:43;;;;;;;1999.90;999.90;;;;;;;4.27;100.00;-18024.28;4942309;29;20453;-29
2021/04/26 05:27:30;;;;;;;1999.90;999.90;;;;;;;4.37;100.00;-18026.84;4942894;29;20520;-29
2021/04/26 05:30:16;;;;;;;1999.90;999.90;;;;;;;4.24;100.00;-18023.50;4942187;29;20457;-29
2021/04/26 05:33:05;;;;;;;1999.90;999.90;;;;;;;4.81;99.91;-18038.66;4941864;29;20728;-29
2021/04/26 05:35:51;;;;;;;1999.90;999.90;;;;;;;5.49;95.33;-18056.53;4942123;29;20577;-29
2021/04/26 05:38:37;;;;;;;1999.90;999.90;;;;;;;5.88;91.26;-18066.84;4941355;29;20488;-30
2021/04/26 05:41:24;;;;;;;1999.90;999.90;;;;;;;6.99;87.63;-18096.09;4941250;29;20471;-30
2021/04/26 05:44:11;;;;;;;1999.90;999.90;;;;;;;8.53;72.47;-18136.97;4942070;29;20453;-30
2021/04/26 05:47:00;;;;;;;1999.90;999.90;;;;;;;8.67;69.06;-18140.47;4944812;29;20234;-30
2021/04/26 05:49:47;;;;;;;1999.90;999.90;;;;;;;8.53;67.32;-18136.97;4940923;29;20485;-30
2021/04/26 05:52:33;;;;;;;1999.90;999.90;;;;;;;7.96;69.96;-18121.84;4940503;29;20289;-30
2021/04/26 05:55:22;;;;;;;1999.90;999.90;;;;;;;9.18;66.64;-18154.00;4940899;29;20610;-30
2021/04/26 05:58:12;;;;;;;1999.90;999.90;;;;;;;9.43;63.44;-18160.53;4940502;29;20346;-31
2021/04/26 06:01:11;;;;;;;1999.90;999.90;;;;;;;9.06;67.05;-18150.91;4941423;29;20607;-31
2021/04/26 06:03:59;;;;;;;1999.90;999.90;;;;;;;8.59;67.04;-18138.59;4942146;29;20204;-30
2021/04/26 06:06:48;;;;;;;1999.90;999.90;;;;;;;8.33;67.33;-18131.50;4942231;29;20257;-30
2021/04/26 06:09:36;;;;;;;1999.90;999.90;;;;;;;8.14;66.45;-18126.53;4941150;29;20200;-30
2021/04/26 06:12:22;;;;;;;1999.90;999.90;;;;;;;8.40;68.08;-18133.50;4940210;29;20747;-30
2021/04/26 06:15:09;;;;;;;1999.90;999.90;;;;;;;9.53;64.44;-18163.22;4940697;29;20276;-30
2021/04/26 06:18:12;;;;;;;1999.90;999.90;;;;;;;9.54;62.14;-18163.63;4943153;29;20240;-30
2021/04/26 06:20:57;;;;;;;1999.90;999.90;;;;;;;9.11;67.38;-18152.25;4940497;29;20506;-30
2021/04/26 06:23:44;;;;;;;1999.90;999.90;;;;;;;9.82;66.93;-18170.97;4940912;29;20204;-30
2021/04/26 06:26:30;;;;;;;1999.90;999.90;;;;;;;8.88;66.45;-18146.22;4940265;29;20210;-30
2021/04/26 06:29:19;;;;;;;1999.90;999.90;;;;;;;10.47;58.56;-18187.97;4940818;29;20200;-30
2021/04/26 06:32:11;;;;;;;1999.90;999.90;;;;;;;9.87;65.31;-18172.19;4940662;29;20608;-30
2021/04/26 06:34:59;;;;;;;1999.90;999.90;;;;;;;11.59;53.81;-18217.50;4940815;29;20300;-30
2021/04/26 06:37:45;;;;;;;1999.90;999.90;;;;;;;9.44;62.36;-18160.81;4941387;29;20233;-30
2021/04/26 06:40:34;;;;;;;1999.90;999.90;;;;;;;11.03;58.27;-18202.94;4941886;29;20273;-30
2021/04/26 06:43:20;;;;;;;1999.90;999.90;;;;;;;10.53;59.50;-18189.72;4944640;29;20198;-29
2021/04/26 06:46:07;;;;;;;1999.90;999.90;;;;;;;9.10;65.42;-18151.97;4951717;29;20208;-30
2021/04/26 06:48:56;;;;;;;1999.90;999.90;;;;;;;8.79;69.35;-18143.69;4948740;29;20280;-30
2021/04/26 06:51:47;;;;;;;1999.90;999.90;;;;;;;10.34;65.01;-18184.75;4939414;29;20204;-38
2021/04/26 06:54:33;;;;;;;1999.90;999.90;;;;;;;11.12;59.81;-18205.22;4939329;29;20253;-30
2021/04/26 06:57:19;;;;;;;1999.90;999.90;;;;;;;11.17;58.87;-18206.56;4940219;29;20204;-30
2021/04/26 07:00:09;;;;;;;1999.90;999.90;;;;;;;12.45;56.75;-18240.06;4940257;29;20379;-30
2021/04/26 07:02:59;;;;;;;1999.90;999.90;;;;;;;14.80;48.41;-18301.97;4940069;29;20201;-30
2021/04/26 07:05:45;;;;;;;1999.90;999.90;;;;;;;14.99;46.14;-18306.88;4952838;29;20229;-30
2021/04/26 07:08:32;;;;;;;1999.90;999.90;;;;;;;12.00;54.73;-18228.47;4947444;29;20266;-30
2021/04/26 07:11:18;;;;;;;1999.90;999.90;;;;;;;11.44;58.98;-18213.63;4941279;29;20201;-30
2021/04/26 07:14:04;;;;;;;1999.90;999.90;;;;;;;10.91;60.43;-18199.59;4939490;29;20208;-31
2021/04/26 07:16:52;;;;;;;1999.90;999.90;;;;;;;11.53;57.50;-18215.91;4939609;29;20211;-31
2021/04/26 07:19:40;;;;;;;1999.90;999.90;;;;;;;10.75;62.23;-18195.31;4939733;29;20615;-30
2021/04/26 07:22:29;;;;;;;1999.90;999.90;;;;;;;13.30;52.63;-18262.50;4939550;29;20612;-31
2021/04/26 07:25:18;;;;;;;1999.90;999.90;;;;;;;12.39;55.00;-18238.75;4940407;29;20204;-31
2021/04/26 07:28:08;;;;;;;1999.90;999.90;;;;;;;13.94;48.65;-18279.31;4944358;29;20243;-31
2021/04/26 07:30:54;;;;;;;1999.90;999.90;;;;;;;13.53;49.29;-18268.63;4945341;29;20349;-31
2021/04/26 07:33:40;;;;;;;1999.90;999.90;;;;;;;14.82;43.62;-18302.63;4945481;29;20228;-31
2021/04/26 07:36:29;;;;;;;1999.90;999.90;;;;;;;15.96;41.68;-18332.47;4945311;29;20660;-28
2021/04/26 07:39:15;;;;;;;1999.90;999.90;;;;;;;14.08;46.15;-18283.03;4947071;29;20518;-31
2021/04/26 07:42:02;;;;;;;1999.90;999.90;;;;;;;15.28;42.38;-18314.63;4944977;29;20252;-31
2021/04/26 07:44:57;;;;;;;1999.90;999.90;;;;;;;14.94;41.05;-18305.56;4945897;29;20209;-31
2021/04/26 07:47:50;;;;;;;1999.90;999.90;;;;;;;15.52;41.84;-18320.88;4956692;29;20203;-30
2021/04/26 07:50:41;;;;;;;1999.90;999.90;;;;;;;14.58;39.74;-18296.09;4964419;29;20203;-29
2021/04/26 07:53:28;;;;;;;1999.90;999.90;;;;;;;12.41;44.84;-18239.13;4963987;28;20248;-29
2021/04/26 07:56:16;;;;;;;1999.90;999.90;;;;;;;13.22;42.63;-18260.50;4964397;28;20204;-30
2021/04/26 07:59:03;;;;;;;1999.90;999.90;;;;;;;14.63;41.85;-18297.56;4964647;28;20784;-30
2021/04/26 08:01:51;;;;;;;1999.90;999.90;;;;;;;16.45;39.76;-18345.22;4965162;29;20208;-30
2021/04/26 08:04:38;;;;;;;1999.90;999.90;;;;;;;15.66;37.90;-18324.59;4964401;29;20204;-31
2021/04/26 08:07:23;;;;;;;1999.90;999.90;;;;;;;14.71;38.58;-18299.56;4964378;28;20208;-30
2021/04/26 08:10:11;;;;;;;1999.90;999.90;;;;;;;14.62;38.05;-18297.31;4964015;29;20493;-30
2021/04/26 08:12:56;;;;;;;1999.90;999.90;;;;;;;13.78;38.41;-18275.16;4966857;29;20207;-30
2021/04/26 08:15:44;;;;;;;1999.90;999.90;;;;;;;13.54;39.01;-18268.91;4964970;28;20216;-30
2021/04/26 08:18:30;;;;;;;1999.90;999.90;;;;;;;13.90;40.05;-18278.38;4964936;28;20387;-30
2021/04/26 08:21:19;;;;;;;1999.90;999.90;;;;;;;14.98;40.58;-18306.63;4964142;29;20343;-30
2021/04/26 08:24:08;;;;;;;1999.90;999.90;;;;;;;15.92;41.93;-18331.41;4964428;29;20479;-30
2021/04/26 08:26:54;;;;;;;1999.90;999.90;;;;;;;15.84;39.82;-18329.25;4964339;29;20602;-30
2021/04/26 08:29:40;;;;;;;1999.90;999.90;;;;;;;16.96;38.72;-18358.53;4969499;28;20203;-30
2021/04/26 08:32:34;;;;;;;1999.90;999.90;;;;;;;16.90;37.89;-18357.06;4965351;29;20207;-32
2021/04/26 08:35:28;;;;;;;1999.90;999.90;;;;;;;16.56;39.06;-18348.16;4964925;28;20216;-32
2021/04/26 08:38:17;;;;;;;1999.90;999.90;;;;;;;16.17;39.31;-18338.06;4963719;28;20384;-30
2021/04/26 08:41:13;;;;;;;1999.90;999.90;;;;;;;15.49;39.41;-18320.06;4964280;29;20208;-30
2021/04/26 08:44:01;;;;;;;1999.90;999.90;;;;;;;16.37;37.21;-18343.25;4962140;29;20348;-30
2021/04/26 08:46:48;;;;;;;1999.90;999.90;;;;;;;16.24;37.31;-18339.66;4963154;29;20343;-30
2021/04/26 08:49:39;;;;;;;1999.90;999.90;;;;;;;15.24;36.91;-18313.41;4961877;29;20190;-30
2021/04/26 08:52:25;;;;;;;1999.90;999.90;;;;;;;14.27;38.10;-18288.09;4961898;29;20355;-30
2021/04/26 08:55:17;;;;;;;1999.90;999.90;;;;;;;16.27;37.77;-18340.56;4923433;29;20556;-30
2021/04/26 08:58:06;;;;;;;1999.90;999.90;;;;;;;17.05;34.50;-18361.06;4923454;29;20328;-31
2021/04/26 09:00:59;;;;;;;1999.90;999.90;;;;;;;16.78;34.28;-18354.00;4923898;29;20209;-31
2021/04/26 09:03:46;;;;;;;1999.90;999.90;;;;;;;15.96;35.92;-18332.31;4924746;29;20205;-30
2021/04/26 09:06:55;;;;;;;1999.90;999.90;;;;;;;14.49;36.92;-18293.84;4923891;29;20208;-31
2021/04/26 09:09:44;;;;;;;1999.90;999.90;;;;;;;14.66;35.20;-18298.22;4923872;29;20612;-30
2021/04/26 09:12:31;;;;;;;1999.90;999.90;;;;;;;16.94;32.74;-18358.13;4923537;29;20277;-30
2021/04/26 09:15:17;;;;;;;1999.90;999.90;;;;;;;15.69;34.26;-18325.28;4922777;29;20313;-30
2021/04/26 09:18:04;;;;;;;1999.90;999.90;;;;;;;15.94;33.85;-18331.78;4922237;29;20229;-30
2021/04/26 09:20:50;;;;;;;1999.90;999.90;;;;;;;14.68;35.09;-18298.75;4922233;29;20309;-30
2021/04/26 09:23:40;;;;;;;1999.90;999.90;;;;;;;14.50;34.81;-18293.97;4922989;29;20276;-31
2021/04/26 09:26:33;;;;;;;1999.90;999.90;;;;;;;15.14;35.64;-18310.88;4922210;29;20206;-30
2021/04/26 09:29:24;;;;;;;1999.90;999.90;;;;;;;14.47;36.52;-18293.44;4922619;29;20620;-30
2021/04/26 09:32:13;;;;;;;1999.90;999.90;;;;;;;16.90;34.67;-18356.94;4922115;29;20346;-30
2021/04/26 09:34:59;;;;;;;1999.90;999.90;;;;;;;14.32;35.22;-18289.44;4922613;29;20253;-30
2021/04/26 09:37:48;;;;;;;1999.90;999.90;;;;;;;13.63;36.54;-18271.31;4922493;29;20494;-30
2021/04/26 09:40:34;;;;;;;1999.90;999.90;;;;;;;14.17;36.13;-18285.31;4921889;29;20210;-30
2021/04/26 09:43:27;;;;;;;1999.90;999.90;;;;;;;16.10;35.39;-18336.19;4922067;29;20210;-31
2021/04/26 09:46:17;;;;;;;1999.90;999.90;;;;;;;16.15;34.67;-18337.50;4922612;29;20214;-31
2021/04/26 09:49:08;;;;;;;1999.90;999.90;;;;;;;15.18;37.72;-18311.81;4924385;29;20258;-30
2021/04/26 09:51:59;;;;;;;1999.90;999.90;;;;;;;16.06;35.33;-18335.00;4930482;29;20213;-31
2021/04/26 09:54:53;;;;;;;1999.90;999.90;;;;;;;16.73;32.44;-18352.69;4965989;29;20283;-31
2021/04/26 09:57:43;;;;;;;1999.90;999.90;;;;;;;15.80;33.23;-18328.34;4960834;29;20488;-31
2021/04/26 10:00:31;;;;;;;1999.90;999.90;;;;;;;16.30;32.73;-18341.38;4961160;29;20718;-30
2021/04/26 10:03:18;;;;;;;1999.90;999.90;;;;;;;15.29;34.55;-18314.88;4960688;29;20259;-29
2021/04/26 10:06:06;;;;;;;1999.90;999.90;;;;;;;13.28;37.90;-18261.97;4960718;29;20233;-30
2021/04/26 10:08:55;;;;;;;1999.90;999.90;;;;;;;14.86;37.53;-18303.56;4961027;29;20195;-30
2021/04/26 10:11:43;;;;;;;1999.90;999.90;;;;;;;15.74;34.90;-18326.75;4961522;29;20196;-29
2021/04/26 10:14:45;;;;;;;1999.90;999.90;;;;;;;15.02;37.83;-18307.69;4970642;29;20212;-30
2021/04/26 10:17:54;;;;;;;1999.90;999.90;;;;;;;13.75;36.02;-18274.38;4974210;29;20204;-30
2021/04/26 10:20:43;;;;;;;1999.90;999.90;;;;;;;15.94;35.36;-18331.78;4973537;29;20204;-30
2021/04/26 10:23:42;;;;;;;1999.90;999.90;;;;;;;14.88;33.46;-18303.97;4963763;29;20204;-30
2021/04/26 10:26:45;;;;;;;1999.90;999.90;;;;;;;13.49;36.72;-18267.56;4941420;29;20200;-30
2021/04/26 10:29:35;;;;;;;1999.90;999.90;;;;;;;13.37;37.43;-18264.50;4943061;29;20265;-29
2021/04/26 10:32:21;;;;;;;1999.90;999.90;;;;;;;14.09;36.50;-18283.44;4945523;29;20230;-30
2021/04/26 10:35:13;;;;;;;1999.90;999.90;;;;;;;14.10;36.55;-18283.69;4947844;29;20477;-30
2021/04/26 10:37:59;;;;;;;1999.90;999.90;;;;;;;13.05;38.58;-18255.97;4946809;29;20280;-29
2021/04/26 10:40:45;;;;;;;1999.90;999.90;;;;;;;14.18;38.46;-18285.56;4953107;29;20659;-30
2021/04/26 10:43:33;;;;;;;1999.90;999.90;;;;;;;14.60;37.50;-18296.63;4941306;29;20211;-30
2021/04/26 10:46:21;;;;;;;1999.90;999.90;;;;;;;13.97;37.69;-18280.25;4941566;29;20284;-30
2021/04/26 10:49:25;;;;;;;1999.90;999.90;;;;;;;14.09;37.14;-18283.44;4940395;29;20473;-30
2021/04/26 10:52:37;;;;;;;1999.90;999.90;;;;;;;14.10;36.65;-18283.56;4940475;29;20212;-30
2021/04/26 10:55:50;;;;;;;1999.90;999.90;;;;;;;13.79;38.48;-18275.56;4943332;29;20208;-29
2021/04/26 10:58:41;;;;;;;1999.90;999.90;;;;;;;14.21;37.63;-18286.38;4941054;29;20237;-31
2021/04/26 11:01:48;;;;;;;1999.90;999.90;;;;;;;13.45;37.84;-18266.50;4940153;29;20201;-30
2021/04/26 11:04:34;;;;;;;1999.90;999.90;;;;;;;13.96;37.00;-18279.97;4940314;29;20519;-30
2021/04/26 11:07:22;;;;;;;1999.90;999.90;;;;;;;15.41;36.42;-18317.94;4940413;29;20288;-30
2021/04/26 11:10:47;;;;;;;1999.90;999.90;;;;;;;15.52;35.34;-18321.00;4940389;29;20269;-30
2021/04/26 11:13:41;;;;;;;1999.90;999.90;;;;;;;13.91;37.26;-18278.50;4939633;29;20204;-30
2021/04/26 11:16:30;;;;;;;1999.90;999.90;;;;;;;13.45;39.19;-18266.63;4940371;29;20201;-30
2021/04/26 11:19:19;;;;;;;1999.90;999.90;;;;;;;13.77;37.01;-18275.03;4940104;29;20232;-30
2021/04/26 11:22:05;;;;;;;1999.90;999.90;;;;;;;13.70;37.56;-18273.16;4939955;29;20214;-29
2021/04/26 11:24:52;;;;;;;1999.90;999.90;;;;;;;13.72;38.64;-18273.72;4944327;29;20267;-30
2021/04/26 11:27:44;;;;;;;1999.90;999.90;;;;;;;14.10;37.89;-18283.56;4962296;29;20287;-30
2021/04/26 11:30:34;;;;;;;1999.90;999.90;;;;;;;14.67;36.28;-18298.50;4952796;29;20276;-31
2021/04/26 11:33:22;;;;;;;1999.90;999.90;;;;;;;13.84;38.08;-18276.78;4941844;29;20208;-29
2021/04/26 11:36:37;;;;;;;1999.90;999.90;;;;;;;13.73;37.84;-18273.84;4942853;29;20312;-30
2021/04/26 11:39:29;;;;;;;1999.90;999.90;;;;;;;15.74;37.35;-18326.59;4954492;29;20301;-30
2021/04/26 11:42:23;;;;;;;1999.90;999.90;;;;;;;14.31;36.65;-18289.16;4956941;29;20204;-30
2021/04/26 11:45:13;;;;;;;1999.90;999.90;;;;;;;15.19;35.04;-18312.22;4940887;29;20204;-30
2021/04/26 11:48:02;;;;;;;1999.90;999.90;;;;;;;16.15;33.47;-18337.38;4953569;29;20208;-32
2021/04/26 11:50:51;;;;;;;1999.90;999.90;;;;;;;15.42;34.14;-18318.22;4953899;29;20475;-30
2021/04/26 11:53:40;;;;;;;1999.90;999.90;;;;;;;16.95;33.20;-18358.28;4957296;29;20353;-30
2021/04/26 11:56:26;;;;;;;1999.90;999.90;;;;;;;16.85;33.08;-18355.88;4946761;29;20207;-30
2021/04/26 11:59:16;;;;;;;1999.90;999.90;;;;;;;15.01;34.42;-18307.56;4947198;29;20237;-30
2021/04/26 12:02:08;;;;;;;1999.90;999.90;;;;;;;16.12;35.58;-18336.59;4948960;29;20299;-30
2021/04/26 12:05:02;;;;;;;1999.90;999.90;;;;;;;16.62;33.01;-18349.75;4945060;29;20201;-30
2021/04/26 12:07:50;;;;;;;1999.90;999.90;;;;;;;16.64;35.03;-18350.28;4944055;29;20208;-31
2021/04/26 12:10:41;;;;;;;1999.90;999.90;;;;;;;14.51;35.31;-18294.25;4941359;29;20209;-30
2021/04/26 12:13:35;;;;;;;1999.90;999.90;;;;;;;14.33;35.48;-18289.69;4941569;29;20297;-30
2021/04/26 12:16:29;;;;;;;1999.90;999.90;;;;;;;15.95;33.91;-18332.06;4945695;29;20205;-31
2021/04/26 12:19:18;;;;;;;1999.90;999.90;;;;;;;14.84;34.75;-18303.03;4963386;29;20243;-30
2021/04/26 12:22:04;;;;;;;1999.90;999.90;;;;;;;14.41;35.57;-18291.84;4960858;29;20203;-30
2021/04/26 12:24:57;;;;;;;1999.90;999.90;;;;;;;15.01;36.00;-18307.41;4960836;29;20603;-30
2021/04/26 12:27:50;;;;;;;1999.90;999.90;;;;;;;14.42;35.38;-18291.97;4962113;29;20208;-30